Time;durP1;ratioP1;P1;durP2;ratioP2;P2;SDS_P1;SDS_P2;PMS_P1;PMS_P2;Temp;Humidity;BMP_temperature;BMP_pressure;BME280_temperature;BME280_humidity;BME280_pressure;Samples;Min_cycle;Max_cycle;Signal;HPM_P1;HPM_P2
2023/08/07 00:01:43;;;;;;;35.03;32.53;;;;;;;21.21;100.00;100142.00;5042916;28;20048;-86
2023/08/07 00:04:10;;;;;;;60.53;57.22;;;;;;;20.97;100.00;100136.63;5046595;28;20049;-86
2023/08/07 00:06:37;;;;;;;36.13;33.63;;;;;;;21.43;100.00;100130.63;5048834;28;20099;-86
2023/08/07 00:09:05;;;;;;;36.97;34.38;;;;;;;20.98;100.00;100137.41;5049385;28;20132;-85
2023/08/07 00:11:32;;;;;;;37.40;34.55;;;;;;;20.50;100.00;100142.78;5047888;28;20051;-86
2023/08/07 00:14:00;;;;;;;39.53;36.83;;;;;;;20.95;100.00;100144.19;5052756;28;20517;-85
2023/08/07 00:16:27;;;;;;;38.50;35.80;;;;;;;20.92;100.00;100154.78;5049633;28;20041;-86
2023/08/07 00:18:55;;;;;;;40.03;37.33;;;;;;;20.47;100.00;100149.56;5046899;28;20136;-85
2023/08/07 00:21:23;;;;;;;39.50;37.00;;;;;;;20.50;100.00;100140.09;5049574;28;20044;-85
2023/08/07 00:23:50;;;;;;;43.60;40.60;;;;;;;20.43;100.00;100140.44;5047092;28;20052;-84
2023/08/07 00:26:21;;;;;;;37.05;34.25;;;;;;;20.52;100.00;100148.75;5048022;28;20045;-90
2023/08/07 00:28:51;;;;;;;34.70;32.40;;;;;;;21.84;100.00;100142.72;5046654;28;20055;-90
2023/08/07 00:31:18;;;;;;;36.95;34.45;;;;;;;21.05;100.00;100154.84;5050071;28;20132;-91
2023/08/07 00:33:45;;;;;;;35.78;33.40;;;;;;;20.24;100.00;100150.31;5049410;28;20485;-93
2023/08/07 00:36:12;;;;;;;37.78;35.08;;;;;;;21.60;100.00;100150.91;5049820;28;20494;-92
2023/08/07 00:38:39;;;;;;;39.33;36.67;;;;;;;21.63;100.00;100132.22;5048805;28;20389;-92
2023/08/07 00:41:07;;;;;;;41.38;38.70;;;;;;;20.30;100.00;100147.31;5048082;28;20049;-91
2023/08/07 00:43:35;;;;;;;40.03;37.30;;;;;;;20.36;100.00;100154.25;5049167;28;20103;-91
2023/08/07 00:46:03;;;;;;;41.67;38.97;;;;;;;20.22;100.00;100147.91;5053256;28;20045;-90
2023/08/07 00:48:30;;;;;;;40.20;37.22;;;;;;;20.29;100.00;100159.16;5051940;28;20135;-90
2023/08/07 00:50:57;;;;;;;38.53;35.80;;;;;;;20.40;100.00;100154.50;5052677;28;20423;-91
2023/08/07 00:53:25;;;;;;;39.55;36.85;;;;;;;20.59;100.00;100166.19;5057078;28;20045;-90
2023/08/07 00:55:52;;;;;;;38.42;35.83;;;;;;;20.85;100.00;100160.53;5036342;28;20060;-92
2023/08/07 00:58:22;;;;;;;40.25;37.55;;;;;;;20.18;100.00;100159.53;5042230;28;20046;-90
2023/08/07 01:00:53;;;;;;;40.63;38.10;;;;;;;20.53;100.00;100164.63;5043538;28;20057;-91
2023/08/07 01:03:20;;;;;;;39.22;36.42;;;;;;;19.87;100.00;100170.56;5042958;28;20499;-92
2023/08/07 01:05:50;;;;;;;41.53;38.67;;;;;;;20.03;100.00;100176.63;5032894;28;20088;-92
2023/08/07 01:08:20;;;;;;;44.50;41.50;;;;;;;20.03;100.00;100184.72;5033702;28;20056;-92
2023/08/07 01:11:02;;;;;;;42.95;40.03;;;;;;;20.31;100.00;100169.69;5046407;28;20129;-85
2023/08/07 01:13:35;;;;;;;43.10;40.20;;;;;;;20.25;100.00;100185.09;5044284;28;20063;-85
2023/08/07 01:16:10;;;;;;;40.50;37.95;;;;;;;20.11;100.00;100186.81;5043064;28;20049;-84
2023/08/07 01:18:38;;;;;;;41.25;38.85;;;;;;;20.50;100.00;100189.44;5043637;28;20049;-85
2023/08/07 01:21:05;;;;;;;35.47;33.25;;;;;;;20.27;100.00;100191.03;5042412;28;20056;-85
2023/08/07 01:23:34;;;;;;;41.22;38.60;;;;;;;20.46;100.00;100188.41;5049665;28;20052;-85
2023/08/07 01:26:01;;;;;;;39.25;36.55;;;;;;;19.84;100.00;100198.88;5051398;28;20045;-85
2023/08/07 01:28:29;;;;;;;37.03;34.42;;;;;;;20.08;100.00;100200.88;5049570;28;20049;-85
2023/08/07 01:31:01;;;;;;;31.45;29.15;;;;;;;19.57;100.00;100204.66;5047825;28;20045;-85
2023/08/07 01:33:33;;;;;;;48.45;45.65;;;;;;;19.91;100.00;100201.28;5052048;28;20056;-85
2023/08/07 01:36:06;;;;;;;51.20;48.35;;;;;;;19.86;100.00;100210.19;5048331;28;20446;-83
2023/08/07 01:38:35;;;;;;;41.35;38.65;;;;;;;19.88;100.00;100212.63;5049356;28;20048;-84
2023/08/07 01:41:03;;;;;;;45.20;42.38;;;;;;;19.55;100.00;100219.50;5047690;28;20063;-85
2023/08/07 01:43:30;;;;;;;38.20;35.75;;;;;;;20.32;100.00;100215.22;5041210;28;20404;-84
2023/08/07 01:45:58;;;;;;;43.45;40.53;;;;;;;19.82;100.00;100217.22;5044368;28;20145;-85
2023/08/07 01:48:25;;;;;;;44.38;41.67;;;;;;;19.54;100.00;100225.97;5040275;28;20051;-92
2023/08/07 01:50:54;;;;;;;37.45;34.75;;;;;;;20.45;100.00;100224.53;5041074;28;20049;-92
2023/08/07 01:53:22;;;;;;;42.88;40.15;;;;;;;19.82;100.00;100225.31;5035116;28;20132;-85
2023/08/07 01:55:51;;;;;;;51.75;48.75;;;;;;;20.49;100.00;100216.72;5041590;28;20481;-83
2023/08/07 01:58:18;;;;;;;40.63;38.08;;;;;;;21.34;100.00;100212.59;5040744;28;20048;-93
2023/08/07 02:00:44;;;;;;;54.55;51.45;;;;;;;20.28;100.00;100224.97;5044411;28;20044;-92
2023/08/07 02:03:11;;;;;;;40.42;38.03;;;;;;;20.21;100.00;100215.59;5043354;28;20056;-93
2023/08/07 02:05:38;;;;;;;51.10;47.90;;;;;;;19.70;100.00;100218.63;5036662;28;20057;-84
2023/08/07 02:08:05;;;;;;;54.47;51.58;;;;;;;20.20;100.00;100224.78;5039864;28;20080;-84
2023/08/07 02:10:32;;;;;;;57.90;54.90;;;;;;;20.96;100.00;100232.16;5041314;28;20124;-83
2023/08/07 02:13:01;;;;;;;57.97;55.03;;;;;;;20.15;100.00;100244.47;5048770;28;20057;-94
2023/08/07 02:15:30;;;;;;;59.20;56.20;;;;;;;21.22;100.00;100230.00;5050601;28;20140;-85
2023/08/07 02:17:57;;;;;;;70.03;66.43;;;;;;;21.17;100.00;100231.94;5049195;28;20040;-84
2023/08/07 02:20:24;;;;;;;74.13;70.47;;;;;;;21.71;100.00;100247.75;5049542;28;20045;-83
2023/08/07 02:22:51;;;;;;;71.45;67.75;;;;;;;19.62;100.00;100236.97;5050018;28;20168;-94
2023/08/07 02:25:18;;;;;;;74.57;70.78;;;;;;;19.87;100.00;100251.41;5052584;28;20568;-93
2023/08/07 02:27:45;;;;;;;67.03;63.85;;;;;;;20.00;100.00;100223.84;5054439;28;20128;-84
2023/08/07 02:30:14;;;;;;;57.10;53.90;;;;;;;19.97;100.00;100237.06;5048667;28;20037;-84
2023/08/07 02:32:44;;;;;;;58.38;54.97;;;;;;;19.27;100.00;100246.00;5050632;28;20052;-84
2023/08/07 02:35:12;;;;;;;57.92;54.83;;;;;;;20.09;100.00;100246.44;5048607;28;20056;-92
2023/08/07 02:37:39;;;;;;;53.13;50.13;;;;;;;19.07;100.00;100264.94;5046743;28;20045;-84
2023/08/07 02:40:06;;;;;;;63.65;60.58;;;;;;;19.17;100.00;100265.69;5043440;28;20045;-91
2023/08/07 02:42:33;;;;;;;56.28;53.28;;;;;;;19.42;100.00;100264.78;5039053;28;20044;-93
2023/08/07 02:45:00;;;;;;;61.05;57.95;;;;;;;18.93;100.00;100273.56;5030601;28;20132;-90
2023/08/07 02:47:28;;;;;;;55.00;52.10;;;;;;;19.43;100.00;100276.38;5031160;28;20050;-94
2023/08/07 02:49:55;;;;;;;58.47;55.58;;;;;;;19.55;100.00;100276.88;5041604;28;20045;-93
2023/08/07 02:52:21;;;;;;;68.78;65.28;;;;;;;20.50;100.00;100269.56;5049244;28;20136;-91
2023/08/07 02:54:51;;;;;;;61.22;58.13;;;;;;;19.18;100.00;100275.41;5037337;28;20057;-93
2023/08/07 02:57:18;;;;;;;51.70;48.97;;;;;;;18.90;100.00;100284.84;5031739;28;20052;-92
2023/08/07 02:59:45;;;;;;;42.92;40.53;;;;;;;19.14;100.00;100270.81;5032353;28;20128;-92
2023/08/07 03:02:12;;;;;;;45.30;42.85;;;;;;;19.44;100.00;100281.47;5043240;28;20144;-93
2023/08/07 03:04:40;;;;;;;49.03;46.45;;;;;;;18.88;100.00;100286.19;5048560;28;20056;-84
2023/08/07 03:07:08;;;;;;;38.13;35.90;;;;;;;18.84;100.00;100296.72;5038424;28;20056;-84
2023/08/07 03:09:34;;;;;;;30.52;28.52;;;;;;;18.85;100.00;100305.56;5044692;28;20087;-93
2023/08/07 03:12:03;;;;;;;32.45;30.45;;;;;;;19.06;100.00;100314.44;5049637;28;20484;-93
2023/08/07 03:14:30;;;;;;;32.65;30.65;;;;;;;18.74;100.00;100321.75;5048952;28;20453;-93
2023/08/07 03:16:57;;;;;;;27.98;26.33;;;;;;;19.52;100.00;100317.84;5048159;28;20049;-84
2023/08/07 03:19:24;;;;;;;25.75;23.85;;;;;;;18.98;100.00;100313.13;5049509;28;20486;-92
2023/08/07 03:21:53;;;;;;;26.83;25.23;;;;;;;18.81;100.00;100331.41;5054643;28;20071;-92
2023/08/07 03:24:19;;;;;;;25.00;23.30;;;;;;;18.98;100.00;100330.06;5052638;28;20528;-84
2023/08/07 03:26:47;;;;;;;24.13;22.60;;;;;;;18.69;100.00;100331.66;5040549;28;20518;-92
2023/08/07 03:29:14;;;;;;;24.88;23.27;;;;;;;18.70;100.00;100323.34;5038475;28;20139;-84
2023/08/07 03:31:41;;;;;;;23.95;22.35;;;;;;;19.63;100.00;100316.69;5041020;28;21032;-91
2023/08/07 03:34:08;;;;;;;23.65;22.15;;;;;;;18.87;100.00;100323.06;5043277;28;20060;-92
2023/08/07 03:36:53;;;;;;;24.75;22.95;;;;;;;18.98;100.00;100334.66;5144817;27;20383;-91
2023/08/07 03:39:20;;;;;;;24.05;22.40;;;;;;;18.79;100.00;100344.31;5139401;27;20130;-91
2023/08/07 03:41:49;;;;;;;24.20;22.50;;;;;;;19.03;100.00;100325.75;5139259;27;20122;-89
2023/08/07 03:44:16;;;;;;;22.98;21.38;;;;;;;19.52;100.00;100331.28;5140118;27;20051;-82
2023/08/07 03:46:43;;;;;;;25.55;24.00;;;;;;;18.58;100.00;100327.34;5140146;27;20498;-90
2023/08/07 03:49:10;;;;;;;23.70;22.00;;;;;;;18.83;100.00;100313.94;5139051;27;20050;-89
2023/08/07 03:51:37;;;;;;;22.77;21.17;;;;;;;18.82;100.00;100315.03;5132068;27;20440;-90
2023/08/07 03:54:05;;;;;;;23.13;21.52;;;;;;;18.76;100.00;100319.59;5146159;27;20043;-92
2023/08/07 03:56:36;;;;;;;23.75;22.05;;;;;;;18.83;100.00;100324.69;5146417;27;20134;-90
2023/08/07 03:59:03;;;;;;;22.83;21.33;;;;;;;19.31;100.00;100330.56;5146708;27;20481;-91
2023/08/07 04:01:30;;;;;;;24.00;22.13;;;;;;;19.26;100.00;100319.78;5141546;27;20495;-90
2023/08/07 04:03:58;;;;;;;25.90;24.00;;;;;;;19.61;100.00;100329.66;5128726;28;20043;-90
2023/08/07 04:06:26;;;;;;;24.63;22.83;;;;;;;18.86;100.00;100339.50;5129093;28;20413;-90
2023/08/07 04:08:53;;;;;;;23.88;22.02;;;;;;;19.27;100.00;100340.22;5128588;28;20048;-91
2023/08/07 04:11:22;;;;;;;23.83;21.95;;;;;;;19.20;100.00;100348.59;5129777;27;20047;-91
2023/08/07 04:13:49;;;;;;;24.83;22.90;;;;;;;19.43;100.00;100328.34;5128616;27;20047;-90
2023/08/07 04:16:16;;;;;;;24.55;22.65;;;;;;;19.28;100.00;100341.88;5128077;28;20050;-88
2023/08/07 04:18:43;;;;;;;23.55;21.67;;;;;;;19.01;100.00;100331.41;5128840;28;20047;-89
2023/08/07 04:21:10;;;;;;;23.38;21.58;;;;;;;19.11;100.00;100333.28;5139921;27;20074;-90
2023/08/07 04:23:37;;;;;;;23.38;21.67;;;;;;;19.59;100.00;100329.09;5137253;27;20043;-90
2023/08/07 04:26:04;;;;;;;22.38;20.58;;;;;;;19.33;100.00;100314.09;5128771;27;20130;-90
2023/08/07 04:28:33;;;;;;;23.02;21.33;;;;;;;19.04;100.00;100332.75;5138227;27;20054;-89
2023/08/07 04:31:00;;;;;;;23.73;22.08;;;;;;;19.06;100.00;100322.50;5143320;27;20047;-90
2023/08/07 04:33:27;;;;;;;24.48;22.77;;;;;;;19.27;100.00;100334.03;5146399;27;20054;-90
2023/08/07 04:35:53;;;;;;;23.92;22.02;;;;;;;19.76;100.00;100338.75;5147261;27;20035;-90
2023/08/07 04:38:20;;;;;;;23.42;21.63;;;;;;;19.94;100.00;100346.25;5146107;27;20050;-91
2023/08/07 04:40:48;;;;;;;23.45;21.55;;;;;;;19.52;100.00;100339.38;5146120;27;20062;-89
2023/08/07 04:43:16;;;;;;;22.77;20.98;;;;;;;19.09;100.00;100340.81;5146366;27;20074;-88
2023/08/07 04:45:45;;;;;;;23.00;21.23;;;;;;;19.73;100.00;100336.63;5144838;27;20077;-90
2023/08/07 04:48:13;;;;;;;22.25;20.45;;;;;;;20.17;100.00;100349.34;5120981;27;20046;-89
2023/08/07 04:50:39;;;;;;;21.98;20.17;;;;;;;19.69;100.00;100352.53;5123328;27;20145;-89
2023/08/07 04:53:07;;;;;;;21.98;20.23;;;;;;;20.13;100.00;100343.72;5117007;27;20057;-82
2023/08/07 04:55:34;;;;;;;21.98;20.13;;;;;;;19.62;100.00;100350.09;5116163;27;20055;-82
2023/08/07 04:58:00;;;;;;;23.33;21.52;;;;;;;19.98;100.00;100333.03;5130475;27;20130;-82
2023/08/07 05:00:28;;;;;;;23.30;21.40;;;;;;;19.82;100.00;100341.19;5124412;27;20054;-82
2023/08/07 05:02:57;;;;;;;23.33;21.38;;;;;;;20.24;100.00;100337.19;5126732;27;20505;-83
2023/08/07 05:05:24;;;;;;;23.63;21.80;;;;;;;19.87;100.00;100343.03;5128026;27;20049;-82
2023/08/07 05:07:50;;;;;;;23.80;21.83;;;;;;;20.83;100.00;100350.81;5123845;27;20108;-82
2023/08/07 05:10:20;;;;;;;25.05;23.10;;;;;;;20.29;100.00;100371.38;5124601;27;20491;-82
2023/08/07 05:12:47;;;;;;;23.98;22.17;;;;;;;20.19;100.00;100369.56;5124441;27;20464;-82
2023/08/07 05:15:14;;;;;;;24.80;22.70;;;;;;;20.40;100.00;100364.84;5122368;27;20043;-82
2023/08/07 05:17:41;;;;;;;23.13;21.33;;;;;;;21.60;100.00;100367.88;5125703;27;20093;-82
2023/08/07 05:20:10;;;;;;;23.48;21.38;;;;;;;21.64;100.00;100360.03;5122000;27;20055;-82
2023/08/07 05:22:37;;;;;;;23.80;22.10;;;;;;;20.63;100.00;100357.16;5119938;27;20047;-83
2023/08/07 05:25:04;;;;;;;22.30;20.70;;;;;;;21.19;100.00;100362.88;5113017;28;20446;-82
2023/08/07 05:27:31;;;;;;;22.73;21.13;;;;;;;21.46;100.00;100365.06;5119220;27;20049;-82
2023/08/07 05:29:58;;;;;;;23.15;21.23;;;;;;;20.82;100.00;100374.31;5126759;27;20085;-83
2023/08/07 05:32:25;;;;;;;22.85;21.05;;;;;;;21.46;100.00;100381.28;5123417;27;20558;-82
2023/08/07 05:34:52;;;;;;;21.55;19.98;;;;;;;21.16;100.00;100357.25;5119326;27;20548;-82
2023/08/07 05:37:20;;;;;;;22.88;21.27;;;;;;;20.86;100.00;100379.94;5123634;27;20046;-83
2023/08/07 05:39:47;;;;;;;22.40;20.80;;;;;;;21.02;100.00;100379.50;5123977;27;20062;-82
2023/08/07 05:42:15;;;;;;;20.88;19.20;;;;;;;23.75;100.00;100370.00;5122206;27;20501;-82
2023/08/07 05:44:42;;;;;;;22.65;20.85;;;;;;;21.02;100.00;100370.59;5122186;27;20047;-83
2023/08/07 05:47:08;;;;;;;22.30;20.60;;;;;;;22.66;100.00;100379.47;5129903;27;20043;-83
2023/08/07 05:49:36;;;;;;;23.10;21.33;;;;;;;21.22;100.00;100385.81;5129935;27;20043;-83
2023/08/07 05:52:03;;;;;;;22.73;21.13;;;;;;;21.36;100.00;100372.47;5130062;27;20046;-83
2023/08/07 05:54:31;;;;;;;23.92;22.08;;;;;;;22.16;100.00;100393.44;5129553;27;20039;-89
2023/08/07 05:56:58;;;;;;;23.10;21.40;;;;;;;21.79;100.00;100400.38;5131810;27;20035;-90
2023/08/07 05:59:25;;;;;;;21.52;19.92;;;;;;;22.31;100.00;100404.06;5130425;27;20573;-91
2023/08/07 06:01:53;;;;;;;22.02;20.33;;;;;;;21.89;100.00;100396.75;5132302;27;20035;-90
2023/08/07 06:04:20;;;;;;;22.45;20.80;;;;;;;21.57;100.00;100397.38;5130168;27;20391;-90
2023/08/07 06:06:48;;;;;;;24.65;22.63;;;;;;;21.78;100.00;100406.84;5129080;27;20040;-89
2023/08/07 06:09:15;;;;;;;23.65;21.85;;;;;;;22.20;100.00;100396.38;5121043;27;20043;-90
2023/08/07 06:11:44;;;;;;;26.83;25.02;;;;;;;21.81;100.00;100400.06;5123665;27;20047;-90
2023/08/07 06:14:11;;;;;;;24.67;22.88;;;;;;;21.99;100.00;100387.69;5123229;27;20047;-90
2023/08/07 06:16:38;;;;;;;22.13;20.52;;;;;;;22.74;100.00;100395.84;5113435;27;20051;-88
2023/08/07 06:19:05;;;;;;;22.77;21.08;;;;;;;23.12;100.00;100390.41;5125107;27;20052;-90
2023/08/07 06:21:32;;;;;;;22.13;20.33;;;;;;;22.65;100.00;100384.09;5124980;27;20054;-90
2023/08/07 06:23:58;;;;;;;23.50;21.80;;;;;;;22.24;100.00;100379.28;5117569;27;20055;-90
2023/08/07 06:26:25;;;;;;;23.20;21.50;;;;;;;21.89;100.00;100378.63;5124753;27;20040;-90
2023/08/07 06:28:54;;;;;;;25.50;23.48;;;;;;;22.39;100.00;100378.25;5126270;27;20122;-89
2023/08/07 06:31:21;;;;;;;24.67;22.80;;;;;;;22.66;100.00;100382.97;5122576;27;20050;-91
2023/08/07 06:33:47;;;;;;;24.05;22.15;;;;;;;22.82;100.00;100399.81;5122339;27;20051;-91
2023/08/07 06:36:14;;;;;;;23.23;21.63;;;;;;;22.88;100.00;100395.13;5126898;27;20047;-90
2023/08/07 06:38:41;;;;;;;23.45;21.90;;;;;;;22.95;100.00;100392.84;5125591;27;20073;-91
2023/08/07 06:41:08;;;;;;;23.77;22.17;;;;;;;24.42;100.00;100391.91;5113797;27;20043;-89
2023/08/07 06:43:35;;;;;;;24.17;22.42;;;;;;;23.46;100.00;100414.44;5125528;27;20054;-90
2023/08/07 06:46:03;;;;;;;23.23;21.67;;;;;;;24.19;100.00;100401.88;5127120;27;20043;-89
2023/08/07 06:48:30;;;;;;;22.42;20.83;;;;;;;22.64;100.00;100410.34;5122156;27;20092;-90
2023/08/07 06:50:57;;;;;;;23.95;22.05;;;;;;;22.67;100.00;100419.78;5123657;27;20039;-91
2023/08/07 06:53:24;;;;;;;23.15;21.67;;;;;;;22.98;100.00;100428.25;5127126;27;20039;-88
2023/08/07 06:55:52;;;;;;;24.98;23.30;;;;;;;22.85;100.00;100418.97;5122678;27;20502;-89
2023/08/07 06:58:21;;;;;;;22.85;21.15;;;;;;;22.82;100.00;100424.19;5123729;27;20122;-89
2023/08/07 07:00:50;;;;;;;21.90;20.20;;;;;;;22.99;100.00;100429.06;5126597;27;20529;-90
2023/08/07 07:03:19;;;;;;;21.70;20.20;;;;;;;23.37;100.00;100429.78;5125911;27;20138;-90
2023/08/07 07:05:51;;;;;;;23.10;21.40;;;;;;;24.43;100.00;100425.28;5118246;27;20131;-92
2023/08/07 07:08:19;;;;;;;24.10;22.30;;;;;;;23.90;100.00;100420.41;5123267;27;20123;-91
2023/08/07 07:10:45;;;;;;;24.70;22.80;;;;;;;24.57;100.00;100409.75;5130585;27;20047;-87
2023/08/07 07:13:12;;;;;;;25.70;23.70;;;;;;;23.58;100.00;100430.22;5126645;27;20126;-88
2023/08/07 07:15:39;;;;;;;24.10;22.40;;;;;;;23.80;100.00;100423.31;5122270;27;20047;-91
2023/08/07 07:18:06;;;;;;;23.45;21.75;;;;;;;25.02;100.00;100426.03;5121691;27;20130;-89
2023/08/07 07:20:35;;;;;;;21.45;19.95;;;;;;;24.91;100.00;100432.84;5118312;27;20039;-90
2023/08/07 07:23:01;;;;;;;24.67;22.98;;;;;;;24.13;100.00;100429.44;5124024;27;20051;-89
2023/08/07 07:25:28;;;;;;;25.30;23.50;;;;;;;23.86;100.00;100439.19;5123600;27;20051;-89
2023/08/07 07:27:55;;;;;;;24.42;22.67;;;;;;;24.04;100.00;100434.75;5121056;27;20043;-91
2023/08/07 07:30:22;;;;;;;22.80;21.05;;;;;;;25.13;100.00;100434.78;5116297;27;20056;-92
2023/08/07 07:32:51;;;;;;;23.48;21.67;;;;;;;24.75;100.00;100434.31;5122070;27;20108;-90
2023/08/07 07:35:18;;;;;;;25.27;23.38;;;;;;;23.94;100.00;100424.13;5119514;27;20426;-90
2023/08/07 07:37:46;;;;;;;25.40;23.50;;;;;;;24.41;100.00;100433.69;5120709;27;20580;-84
2023/08/07 07:40:13;;;;;;;26.67;24.60;;;;;;;24.86;100.00;100433.78;5110240;28;20050;-83
2023/08/07 07:42:40;;;;;;;24.15;22.30;;;;;;;24.59;100.00;100431.16;5111986;28;20082;-89
2023/08/07 07:45:08;;;;;;;24.48;22.65;;;;;;;24.52;100.00;100431.59;5129782;28;20497;-90
2023/08/07 07:47:35;;;;;;;25.83;24.02;;;;;;;23.51;100.00;100432.50;5129221;27;20059;-90
2023/08/07 07:50:07;;;;;;;25.73;23.83;;;;;;;24.40;100.00;100428.56;5123135;28;20051;-89
2023/08/07 07:52:34;;;;;;;26.00;24.30;;;;;;;24.88;100.00;100437.00;5127281;27;20044;-90
2023/08/07 07:55:02;;;;;;;25.70;23.90;;;;;;;24.27;100.00;100438.34;5111890;28;20047;-89
2023/08/07 07:57:29;;;;;;;24.50;22.80;;;;;;;25.63;100.00;100445.47;5117568;28;20114;-90
2023/08/07 07:59:57;;;;;;;25.88;24.08;;;;;;;24.70;100.00;100440.69;5119595;27;20479;-87
2023/08/07 08:02:24;;;;;;;25.90;24.00;;;;;;;24.30;100.00;100450.50;5122669;28;20854;-90
2023/08/07 08:04:52;;;;;;;24.67;22.98;;;;;;;24.55;100.00;100446.47;5119659;28;20047;-89
2023/08/07 08:07:21;;;;;;;27.00;25.10;;;;;;;24.37;100.00;100437.31;5122818;28;20040;-89
2023/08/07 08:09:50;;;;;;;27.05;25.08;;;;;;;24.21;100.00;100434.94;5118862;28;20047;-83
2023/08/07 08:12:23;;;;;;;23.85;22.05;;;;;;;24.79;100.00;100432.59;5123241;28;20047;-82
2023/08/07 08:14:49;;;;;;;24.40;22.38;;;;;;;24.79;100.00;100452.41;5114698;27;20122;-82
2023/08/07 08:17:16;;;;;;;24.40;22.60;;;;;;;24.48;100.00;100444.19;5123778;27;20126;-83
2023/08/07 08:19:43;;;;;;;24.95;23.15;;;;;;;25.67;100.00;100438.25;5126143;27;20122;-82
2023/08/07 08:22:10;;;;;;;27.05;24.88;;;;;;;24.77;100.00;100440.25;5130308;27;20483;-89
2023/08/07 08:24:37;;;;;;;27.67;25.55;;;;;;;25.09;100.00;100460.94;5132280;27;20070;-82
2023/08/07 08:27:05;;;;;;;25.83;23.98;;;;;;;25.18;100.00;100448.25;5132336;27;20054;-82
2023/08/07 08:29:33;;;;;;;25.48;23.40;;;;;;;24.88;100.00;100439.72;5129769;27;20125;-83
2023/08/07 08:32:00;;;;;;;24.85;23.08;;;;;;;25.01;100.00;100448.09;5132594;27;20129;-89
2023/08/07 08:34:28;;;;;;;23.58;21.88;;;;;;;25.31;100.00;100458.22;5132383;27;20459;-83
2023/08/07 08:36:54;;;;;;;23.83;22.02;;;;;;;24.38;100.00;100453.28;5132400;27;20044;-89
2023/08/07 08:39:21;;;;;;;23.48;21.75;;;;;;;24.90;100.00;100451.06;5133297;27;20063;-83
2023/08/07 08:41:49;;;;;;;24.67;22.98;;;;;;;24.92;100.00;100439.88;5132583;27;20039;-89
2023/08/07 08:44:18;;;;;;;23.02;21.33;;;;;;;25.27;100.00;100442.88;5132428;27;20117;-86
2023/08/07 08:46:48;;;;;;;25.25;23.50;;;;;;;25.98;100.00;100421.91;5132141;27;20538;-84
2023/08/07 08:49:23;;;;;;;25.63;23.83;;;;;;;25.10;100.00;100446.25;5130892;27;20070;-91
2023/08/07 08:51:51;;;;;;;24.33;22.63;;;;;;;26.30;100.00;100417.19;5132872;27;20122;-83
2023/08/07 08:54:19;;;;;;;25.05;23.25;;;;;;;24.96;100.00;100446.28;5130619;27;20089;-83
2023/08/07 08:56:46;;;;;;;25.13;23.33;;;;;;;25.12;100.00;100439.41;5131979;27;20050;-82
2023/08/07 08:59:14;;;;;;;25.23;23.42;;;;;;;25.38;100.00;100433.31;5131699;27;20138;-83
2023/08/07 09:01:41;;;;;;;24.15;22.35;;;;;;;25.99;100.00;100436.31;5130905;27;20050;-82
2023/08/07 09:04:10;;;;;;;24.58;22.77;;;;;;;25.83;100.00;100430.50;5130977;27;20047;-82
2023/08/07 09:06:37;;;;;;;23.15;21.33;;;;;;;26.25;100.00;100437.16;5126229;27;20054;-82
2023/08/07 09:09:06;;;;;;;22.92;21.23;;;;;;;26.60;100.00;100433.72;5121932;27;20057;-82
2023/08/07 09:11:34;;;;;;;22.58;20.73;;;;;;;26.36;100.00;100437.69;5123166;27;20127;-83
2023/08/07 09:14:03;;;;;;;25.60;23.70;;;;;;;25.94;100.00;100439.19;5124502;27;20047;-83
2023/08/07 09:16:31;;;;;;;25.42;23.58;;;;;;;25.91;100.00;100428.94;5124091;27;20054;-82
2023/08/07 09:18:58;;;;;;;24.40;22.50;;;;;;;25.70;100.00;100423.25;5122773;27;20048;-82
2023/08/07 09:21:27;;;;;;;25.20;23.40;;;;;;;26.93;100.00;100423.94;5122352;27;20576;-84
2023/08/07 09:23:54;;;;;;;26.65;24.55;;;;;;;26.63;100.00;100420.25;5129549;27;20052;-82
2023/08/07 09:26:23;;;;;;;24.52;22.63;;;;;;;26.71;100.00;100424.88;5120909;27;20132;-83
2023/08/07 09:28:52;;;;;;;23.77;22.08;;;;;;;26.95;100.00;100435.28;5122681;27;20046;-82
2023/08/07 09:31:19;;;;;;;24.38;22.27;;;;;;;26.77;100.00;100432.91;5122031;27;20520;-84
2023/08/07 09:33:48;;;;;;;23.95;22.13;;;;;;;25.90;100.00;100441.75;5123456;27;20056;-83
2023/08/07 09:36:17;;;;;;;22.98;21.35;;;;;;;27.18;100.00;100446.81;5126788;27;20062;-83
2023/08/07 09:38:50;;;;;;;23.25;21.58;;;;;;;26.52;100.00;100439.97;5130796;27;20107;-83
2023/08/07 09:41:19;;;;;;;25.67;23.67;;;;;;;27.01;100.00;100444.09;5130782;27;20043;-82
2023/08/07 09:43:46;;;;;;;26.92;25.02;;;;;;;26.41;100.00;100461.22;5131166;27;20043;-82
2023/08/07 09:46:13;;;;;;;24.33;22.63;;;;;;;26.98;100.00;100449.38;5130300;27;20127;-82
2023/08/07 09:48:44;;;;;;;24.40;22.60;;;;;;;27.23;100.00;100464.91;5130340;27;20150;-83
2023/08/07 09:51:11;;;;;;;24.13;22.33;;;;;;;27.56;100.00;100464.34;5130205;27;20434;-83
2023/08/07 09:53:38;;;;;;;24.20;22.00;;;;;;;27.49;100.00;100458.63;5130120;27;20306;-82
2023/08/07 09:56:07;;;;;;;25.08;23.13;;;;;;;27.36;100.00;100446.78;5124905;27;20134;-84
2023/08/07 09:58:34;;;;;;;25.38;23.27;;;;;;;27.07;100.00;100456.44;5122945;27;20043;-82
2023/08/07 10:01:04;;;;;;;22.50;20.70;;;;;;;27.15;100.00;100461.09;5123076;27;20045;-82
2023/08/07 10:03:31;;;;;;;22.17;20.38;;;;;;;27.69;100.00;100468.03;5123424;27;20425;-82
2023/08/07 10:05:58;;;;;;;23.38;21.58;;;;;;;27.78;100.00;100460.63;5117438;27;20047;-85
2023/08/07 10:08:26;;;;;;;22.98;21.17;;;;;;;27.71;100.00;100449.38;5123054;27;20050;-83
2023/08/07 10:10:53;;;;;;;23.25;21.35;;;;;;;27.44;100.00;100448.66;5120853;27;20062;-83
2023/08/07 10:13:23;;;;;;;24.35;22.25;;;;;;;28.23;100.00;100443.66;5120634;27;20051;-83
2023/08/07 10:15:51;;;;;;;23.38;21.40;;;;;;;27.83;100.00;100458.50;5120538;27;20132;-82
2023/08/07 10:18:21;;;;;;;22.15;20.10;;;;;;;28.07;100.00;100457.09;5120238;27;20051;-91
2023/08/07 10:20:53;;;;;;;21.98;20.08;;;;;;;27.62;100.00;100460.31;5119440;27;20055;-90
2023/08/07 10:23:22;;;;;;;23.02;21.25;;;;;;;27.96;100.00;100456.69;5124465;27;20510;-90
2023/08/07 10:25:51;;;;;;;22.10;20.48;;;;;;;27.54;100.00;100448.34;5129755;27;20047;-90
2023/08/07 10:28:22;;;;;;;22.70;20.90;;;;;;;28.07;100.00;100446.19;5132586;27;20493;-90
2023/08/07 10:30:50;;;;;;;22.67;20.80;;;;;;;28.51;100.00;100439.31;5130592;27;20058;-88
2023/08/07 10:33:20;;;;;;;24.15;22.35;;;;;;;28.27;95.11;100430.97;5131052;27;20062;-92
2023/08/07 10:35:48;;;;;;;22.70;20.90;;;;;;;28.21;100.00;100435.03;5129413;27;20112;-90
2023/08/07 10:38:16;;;;;;;23.70;21.77;;;;;;;28.83;99.12;100444.34;5129431;27;20046;-89
2023/08/07 10:41:02;;;;;;;22.90;21.10;;;;;;;28.33;96.70;100431.56;5130190;27;20100;-90
2023/08/07 10:43:31;;;;;;;22.58;20.77;;;;;;;28.49;90.33;100417.00;5130535;27;20039;-90
2023/08/07 10:46:05;;;;;;;23.05;21.05;;;;;;;28.50;92.70;100415.06;5129213;27;20084;-91
2023/08/07 10:48:39;;;;;;;22.42;20.42;;;;;;;27.84;100.00;100437.50;5127094;27;20062;-90
2023/08/07 10:51:07;;;;;;;22.17;20.38;;;;;;;27.47;97.43;100439.84;5132855;27;20046;-83
2023/08/07 10:53:41;;;;;;;23.20;21.08;;;;;;;28.20;93.52;100430.66;5127575;27;20140;-83
2023/08/07 10:56:11;;;;;;;21.92;20.02;;;;;;;27.86;97.88;100422.34;5129735;27;20050;-84
2023/08/07 10:58:41;;;;;;;22.98;21.08;;;;;;;28.28;81.95;100418.91;5128064;27;20047;-83
2023/08/07 11:01:22;;;;;;;22.17;20.48;;;;;;;28.37;100.00;100414.16;5130362;27;20050;-83
2023/08/07 11:03:51;;;;;;;22.15;20.45;;;;;;;28.26;83.88;100421.16;5130106;27;20482;-83
2023/08/07 11:06:18;;;;;;;22.65;20.77;;;;;;;28.50;91.65;100406.88;5129236;27;20059;-83